City's sites:

title views votes rating creation
?never been here 334 12 (3.08)  2010-02-07
?pastel negro 526 14 (2.50)  2010-02-07
?dizzy 233 8 (3.38)  2010-02-07
?two pictures from my desktop 808 16 (3.69)  2010-02-09
?broken clock realizes he is the last object left in the ... 364 10 (3.20)  2010-02-09
?heroes of old 538 19 (3.74)  2010-02-09
?mr. price 370 8 (3.25)  2010-02-09
?Music I Like - Part 1 548 10 (3.60)  2010-02-10
?Music I Like - Part 2 331 13 (3.54)  2010-02-10
?Music I Like - Part 3 481 13 (3.69)  2010-02-10
?Music I Like - Part 4 342 5 (3.20)  2010-02-10
?intense 463 9 (3.78)  2010-02-10
?oh SNAP 686 9 (3.22)  2010-02-10
?Music I Like - Part 5 478 9 (3.56)  2010-02-10
?SignlanguageTMND 319 14 (3.86)  2010-02-10
?lol internet (refresh) 498 6 (3.17)  2010-02-12
?Dumbeldore kills snape! 3,196 67 (4.03)  2010-02-12
?prairiedogeric10 tribute site 586 23 (3.96)  2010-02-13
?Legolewdite fan club 1,206 38 (3.87)  2010-02-13
?Connery retires 332 13 (3.85)  2010-02-13
?TOURNEY4: lol internet 494 7 (2.43)  2010-02-15
?Speed Deemon 886 23 (3.74)  2010-02-23
?Tribute: ASSCOCKredux 1,528 64 (3.91)  2010-02-23
?some light jazz with Robert De Niro 762 12 (3.50)  2010-02-23
?In What Language 1,385 34 (3.74)  2010-02-24
?go go go go go go go go go go go go go go go go ... 1,955 23 (3.74)  2010-02-24
?FEARCONDOM'S FAMILY Q U I L T 555 11 (3.55)  2010-02-24
?TEST 664 19 (3.84)  2010-02-26
?....someday, oh dream maker DUNANANANAN... 4,977 148 (3.96)  2010-02-28
?DOUGH FUNNIE HOMO DICKS 518 12 (3.58)  2010-03-01
?Using a concrete bricK 529 17 (3.82)  2010-03-01
?I had sex with a Kayan Tribe woman, little help plea... 791 11 (3.36)  2010-03-03
?Adventure 4 948 17 (3.65)  2010-03-03
?the standoff 406 9 (3.67)  2010-03-03
?alley children 478 11 (3.91)  2010-03-05
?Steven Seagal isn't impressed 9,692 180 (4.16)  2010-03-05
?Daunting Steps 211 7 (3.00)  2010-03-05
?Cruel and Unusual 6,045 163 (4.24)  2010-03-09
?DancehallTMND 409 10 (3.80)  2010-03-12
?FUCK OUT MY FACE 484 5 (2.60)  2010-03-18
?16, no dither 716 18 (3.94)  2010-03-20
?say hi to my girlfriend 888 16 (3.81)  2010-03-21
?TT 507 16 (3.88)  2010-03-23
?jimmm thinks about his next five 607 20 (3.80)  2010-03-24
?THE TELEKINETIC MAN 251 18 (3.50)  2010-03-25
?. 116 7 (2.71)  2010-03-26
?1! 291 17 (3.35)  2010-03-26
?Fake crocodile takes it to the limit one more time 584 9 (3.67)  2010-03-27
?croctheme 392 4 (3.25)  2010-03-27
?crocodile site 341 6 (3.50)  2010-03-27
?CROC MAKES A 187 LOOK EASY 167 6 (3.33)  2010-03-27
?New Croc SIte 155 5 (3.40)  2010-03-27
?L 296 19 (3.63)  2010-03-27
?crocodile sIte 208 10 (3.50)  2010-03-30
?Pleasant® 253 8 (3.38)  2010-03-30
?A Lovely Ride 211 13 (3.85)  2010-03-30
?It's glorious today 280 14 (3.64)  2010-04-01
?Na - Zu 381 10 (3.70)  2010-04-01
?WHO'NOWOWOWOW 407 5 (2.60)  2010-04-03
?part of your world 195 5 (3.00)  2010-04-04
?fff 170 4 (3.50)  2010-04-04
?FIve-star webiste 890 16 (1.94)  2010-04-04
?Captain Haddock 1,651 28 (3.86)  2010-04-04
?, 247 9 (3.33)  2010-04-05
?indnian 345 7 (2.71)  2010-04-05
?Ricky Manning tribute sIte will be Underway soon ! 197 3 (3.67)  2010-04-06
?Epic Domain Grab 187 6 (2.17)  2010-04-06
?retirement site 158 6 (2.83)  2010-04-06
?Paul newman doesn't drive a VAN 179 4 (3.00)  2010-04-06
?Vince McMan 305 7 (2.86)  2010-04-06
?LOL 271 5 (3.00)  2010-04-06
?wut 252 4 (2.75)  2010-04-06
?www.coachcarter.ytmnd.com 281 8 (1.88)  2010-04-06
?untitled 255 7 (2.14)  2010-04-09
?ExpirimennalTYTMND 322 8 (3.38)  2010-04-09
?jioejejejoijiojiojioejiejoijeoj 369 14 (3.79)  2010-04-09
?Jake Steele catches a fly ball 308 4 (3.50)  2010-04-10
?Jake Steele forgets the milk 293 3 (3.00)  2010-04-10
?Jake Steele just found his watch 275 4 (3.25)  2010-04-10
?Jake Steele grows up a bit 386 7 (2.86)  2010-04-10
?KRA2008 327 5 (2.60)  2010-04-10
?Fuck the world 706 26 (3.88)  2010-04-16
?a sexual guy 453 10 (2.30)  2010-05-12
?well 260 4 (4.25)  2010-09-03
?gay site you can watch while thinking about stuff 1,467 14 (4.07)  2010-09-13
?site dedicated to great warchief 1,220 12 (3.58)  2010-09-16
?38388 801 8 (3.88)  2010-09-16
?watching the world buzz by 455 4 (3.50)  2010-09-16
?what now 1,366 17 (3.94)  2010-09-16